createdAt,value
2022-11-29T00:01:21.628Z,56.57
2022-11-29T00:03:49.335Z,57.17
2022-11-29T00:21:12.872Z,60.57
2022-11-29T00:23:40.257Z,49.13
2022-11-29T00:26:07.680Z,56.53
2022-11-29T00:28:35.495Z,46.37
2022-11-29T00:31:23.051Z,47.93
2022-11-29T00:33:50.734Z,51.07
2022-11-29T00:36:18.057Z,46.33
2022-11-29T00:38:45.787Z,47.13
2022-11-29T00:41:13.465Z,67.03
2022-11-29T00:43:40.798Z,48.90
2022-11-29T00:46:08.715Z,54.20
2022-11-29T00:48:36.459Z,53.20
2022-11-29T00:51:04.470Z,47.70
2022-11-29T00:53:32.082Z,56.20
2022-11-29T00:55:59.672Z,50.90
2022-11-29T00:58:27.440Z,50.57
2022-11-29T01:00:54.961Z,50.73
2022-11-29T01:03:22.760Z,50.00
2022-11-29T01:05:50.356Z,47.50
2022-11-29T01:08:17.742Z,48.80
2022-11-29T01:10:45.329Z,44.53
2022-11-29T01:13:12.694Z,48.00
2022-11-29T01:15:40.029Z,53.43
2022-11-29T01:18:07.643Z,58.43
2022-11-29T01:20:35.113Z,46.90
2022-11-29T01:23:02.448Z,46.73
2022-11-29T01:25:32.083Z,50.00
2022-11-29T01:27:59.667Z,45.67
2022-11-29T01:30:27.058Z,45.57
2022-11-29T01:32:55.686Z,49.70
2022-11-29T01:35:23.005Z,51.33
2022-11-29T01:37:50.354Z,47.90
2022-11-29T01:40:18.615Z,46.67
2022-11-29T01:42:45.988Z,54.73
2022-11-29T01:45:21.910Z,47.37
2022-11-29T01:47:49.553Z,43.00
2022-11-29T01:50:16.953Z,49.37
2022-11-29T01:52:44.307Z,42.83
2022-11-29T01:55:11.941Z,41.67
2022-11-29T01:57:40.497Z,41.13
2022-11-29T02:00:11.274Z,41.67
2022-11-29T02:02:55.790Z,39.90
2022-11-29T02:05:23.490Z,40.83
2022-11-29T02:07:52.981Z,41.33
2022-11-29T02:10:20.499Z,43.67
2022-11-29T02:12:58.954Z,40.50
2022-11-29T02:15:54.365Z,40.53
2022-11-29T02:18:59.201Z,44.97
2022-11-29T02:21:47.072Z,45.60
2022-11-29T02:24:14.498Z,42.23
2022-11-29T02:27:15.435Z,50.83
2022-11-29T02:30:01.319Z,38.90
2022-11-29T02:32:50.460Z,52.60
2022-11-29T02:35:36.256Z,44.00
2022-11-29T02:38:06.594Z,39.75
2022-11-29T02:40:52.562Z,39.40
2022-11-29T02:43:43.990Z,48.00
2022-11-29T02:46:43.728Z,71.33
2022-11-29T02:49:42.427Z,42.13
2022-11-29T02:52:17.770Z,36.07
2022-11-29T02:54:53.088Z,39.37
2022-11-29T02:57:29.472Z,44.70
2022-11-29T03:00:10.904Z,37.55
2022-11-29T03:02:40.812Z,38.43
2022-11-29T03:05:23.270Z,38.40
2022-11-29T03:08:15.808Z,36.23
2022-11-29T03:11:15.161Z,36.27
2022-11-29T03:13:46.007Z,41.93
2022-11-29T03:16:16.307Z,35.37
2022-11-29T03:18:58.408Z,33.33
2022-11-29T03:21:47.987Z,34.60
2022-11-29T03:24:20.176Z,35.43
2022-11-29T03:27:01.708Z,38.80
2022-11-29T03:29:41.043Z,35.50
2022-11-29T03:32:19.848Z,43.13
2022-11-29T03:34:54.328Z,33.53
2022-11-29T03:37:42.632Z,35.33
2022-11-29T03:40:16.047Z,31.60
2022-11-29T03:42:49.646Z,29.50
2022-11-29T03:45:29.393Z,31.83
2022-11-29T03:48:00.152Z,35.30
2022-11-29T03:50:33.404Z,32.00
2022-11-29T03:53:28.419Z,33.93
2022-11-29T03:56:00.838Z,29.27
2022-11-29T03:58:36.855Z,33.27
2022-11-29T04:01:35.652Z,31.05
2022-11-29T04:04:48.136Z,30.03
2022-11-29T04:07:21.377Z,29.27
2022-11-29T04:10:13.266Z,30.37
2022-11-29T04:12:51.690Z,30.13
2022-11-29T04:15:41.171Z,26.57
2022-11-29T04:18:14.541Z,26.63
2022-11-29T04:20:48.592Z,32.37
2022-11-29T04:23:30.581Z,28.10
2022-11-29T04:26:39.846Z,27.53
2022-11-29T04:29:10.092Z,30.33
2022-11-29T04:31:53.788Z,29.07
2022-11-29T04:34:44.107Z,29.60
2022-11-29T04:37:36.387Z,30.23
2022-11-29T04:40:22.242Z,35.00
2022-11-29T04:43:11.478Z,29.67
2022-11-29T04:45:47.332Z,33.80
2022-11-29T04:48:39.214Z,21.40
2022-11-29T04:51:15.979Z,31.53
2022-11-29T04:53:51.105Z,31.03
2022-11-29T04:56:43.275Z,32.10
2022-11-29T04:59:32.511Z,34.90
2022-11-29T05:02:37.305Z,34.30
2022-11-29T05:05:19.951Z,32.45
2022-11-29T05:08:14.572Z,32.07
2022-11-29T05:11:03.797Z,36.97
2022-11-29T05:14:00.452Z,35.10
2022-11-29T05:16:45.618Z,36.13
2022-11-29T05:19:34.615Z,33.13
2022-11-29T05:22:40.019Z,36.47
2022-11-29T05:25:25.894Z,33.13
2022-11-29T05:28:10.598Z,35.63
2022-11-29T05:31:04.087Z,34.33
2022-11-29T05:33:46.716Z,32.13
2022-11-29T05:36:23.008Z,28.43
2022-11-29T05:39:14.481Z,30.75
2022-11-29T05:42:03.326Z,33.70
2022-11-29T05:44:39.069Z,33.73
2022-11-29T05:47:10.184Z,35.07
2022-11-29T05:49:54.017Z,33.40
2022-11-29T05:52:50.954Z,31.40
2022-11-29T05:55:56.296Z,33.03
2022-11-29T05:58:30.500Z,24.58
2022-11-29T06:01:24.437Z,34.47
2022-11-29T06:04:14.724Z,31.40
2022-11-29T06:07:01.549Z,32.23
2022-11-29T06:09:41.467Z,35.53
2022-11-29T06:12:22.514Z,36.97
2022-11-29T06:15:10.507Z,41.60
2022-11-29T06:18:19.123Z,32.53
2022-11-29T06:20:52.756Z,31.63
2022-11-29T06:23:20.011Z,34.23
2022-11-29T06:26:03.699Z,29.13
2022-11-29T06:28:54.919Z,32.80
2022-11-29T06:31:28.680Z,33.00
2022-11-29T06:34:02.366Z,31.93
2022-11-29T06:36:52.995Z,31.50
2022-11-29T06:39:20.576Z,35.73
2022-11-29T06:41:48.895Z,27.97
2022-11-29T06:44:16.605Z,30.23
2022-11-29T06:46:45.962Z,30.20
2022-11-29T06:49:29.121Z,33.17
2022-11-29T06:52:50.356Z,31.97
2022-11-29T06:55:26.607Z,31.20
2022-11-29T06:58:09.821Z,29.92
2022-11-29T07:00:50.539Z,30.30
2022-11-29T07:03:29.815Z,33.60
2022-11-29T07:05:57.569Z,37.17
2022-11-29T07:08:25.421Z,33.50
2022-11-29T07:10:54.098Z,31.23
2022-11-29T07:13:21.973Z,33.77
2022-11-29T07:16:15.940Z,37.23
2022-11-29T07:19:10.990Z,29.47
2022-11-29T07:21:59.071Z,30.83
2022-11-29T07:24:52.044Z,31.47
2022-11-29T07:27:42.106Z,31.33
2022-11-29T07:30:33.453Z,29.63
2022-11-29T07:33:25.181Z,37.93
2022-11-29T07:36:15.503Z,32.23
2022-11-29T07:39:17.887Z,34.20
2022-11-29T07:42:18.296Z,33.17
2022-11-29T07:44:55.345Z,36.40
2022-11-29T07:47:22.930Z,40.23
2022-11-29T07:49:50.251Z,37.80
2022-11-29T07:52:17.755Z,35.43
2022-11-29T07:54:45.597Z,37.40
2022-11-29T07:57:13.387Z,33.60
2022-11-29T07:59:40.816Z,33.80
2022-11-29T08:02:11.966Z,33.20
2022-11-29T08:04:46.050Z,36.80
2022-11-29T08:07:13.599Z,39.27
2022-11-29T08:09:41.208Z,40.03
2022-11-29T08:12:08.622Z,41.83
2022-11-29T08:14:35.981Z,37.00
2022-11-29T08:17:04.050Z,55.60
2022-11-29T08:19:31.415Z,42.17
2022-11-29T08:21:58.885Z,41.33
2022-11-29T08:24:26.880Z,44.03
2022-11-29T08:26:54.415Z,45.33
2022-11-29T08:29:21.733Z,38.47
2022-11-29T08:31:53.600Z,37.77
2022-11-29T08:34:21.873Z,36.17
2022-11-29T08:36:50.033Z,40.47
2022-11-29T08:39:17.457Z,35.00
2022-11-29T08:41:44.810Z,40.50
2022-11-29T08:44:12.397Z,45.97
2022-11-29T08:46:58.768Z,39.57
2022-11-29T08:49:26.373Z,37.87
2022-11-29T08:52:13.719Z,42.60
2022-11-29T08:54:42.626Z,40.10
2022-11-29T08:57:38.419Z,44.90
2022-11-29T08:59:57.792Z,41.30
2022-11-29T09:02:25.235Z,39.93
2022-11-29T09:04:52.646Z,36.60
2022-11-29T09:07:20.344Z,43.87
2022-11-29T09:09:48.365Z,41.97
2022-11-29T09:12:15.691Z,35.17
2022-11-29T09:14:43.689Z,34.53
2022-11-29T09:17:11.334Z,31.10
2022-11-29T09:19:38.770Z,38.87
2022-11-29T09:22:06.385Z,36.80
2022-11-29T09:24:33.812Z,39.30
2022-11-29T09:27:01.210Z,40.60
2022-11-29T09:29:29.149Z,40.20
2022-11-29T09:31:56.561Z,40.67
2022-11-29T09:34:23.911Z,38.40
2022-11-29T09:36:51.608Z,39.07
2022-11-29T09:39:19.029Z,35.63
2022-11-29T09:42:04.615Z,43.80
2022-11-29T09:44:59.667Z,37.88
2022-11-29T09:47:48.500Z,37.13
2022-11-29T09:50:25.421Z,39.23
2022-11-29T09:55:32.310Z,39.73
2022-11-29T10:00:27.343Z,39.67
2022-11-29T10:03:03.274Z,37.23
2022-11-29T10:06:05.462Z,40.47
2022-11-29T10:08:38.425Z,43.37
2022-11-29T10:11:18.302Z,35.30
2022-11-29T10:13:51.782Z,37.47
2022-11-29T10:16:36.243Z,38.00
2022-11-29T10:19:07.897Z,43.43
2022-11-29T10:21:36.709Z,39.30
2022-11-29T10:24:07.151Z,44.57
2022-11-29T10:26:35.638Z,42.43
2022-11-29T10:29:03.023Z,44.80
2022-11-29T10:31:36.055Z,40.37
2022-11-29T10:34:11.419Z,41.83
2022-11-29T10:36:43.355Z,42.13
2022-11-29T10:39:49.640Z,42.23
2022-11-29T10:42:37.587Z,49.87
2022-11-29T10:45:07.868Z,44.40
2022-11-29T10:47:35.713Z,47.10
2022-11-29T10:50:03.082Z,46.03
2022-11-29T10:52:30.441Z,49.60
2022-11-29T10:54:58.573Z,39.17
2022-11-29T10:57:26.101Z,47.13
2022-11-29T11:00:08.057Z,41.50
2022-11-29T11:02:35.666Z,41.00
2022-11-29T11:05:03.778Z,40.63
2022-11-29T11:07:35.701Z,45.77
2022-11-29T11:10:19.527Z,45.87
2022-11-29T11:13:03.840Z,42.00
2022-11-29T11:15:31.842Z,39.80
2022-11-29T11:18:04.942Z,40.60
2022-11-29T11:20:35.163Z,38.47
2022-11-29T11:23:26.756Z,42.00
2022-11-29T11:26:07.102Z,34.90
2022-11-29T11:28:51.703Z,37.33
2022-11-29T11:31:34.118Z,41.23
2022-11-29T11:34:24.647Z,41.33
2022-11-29T11:36:53.543Z,44.87
2022-11-29T11:39:22.636Z,38.57
2022-11-29T11:42:09.070Z,44.97
2022-11-29T11:44:49.892Z,39.67
2022-11-29T11:47:22.231Z,41.73
2022-11-29T11:49:56.558Z,49.10
2022-11-29T11:52:26.451Z,41.17
2022-11-29T11:54:55.558Z,41.60
2022-11-29T11:57:23.179Z,41.83
2022-11-29T11:59:50.877Z,40.37
2022-11-29T12:02:28.315Z,39.13
2022-11-29T12:04:58.776Z,41.27
2022-11-29T12:08:06.184Z,39.87
2022-11-29T12:10:28.765Z,38.63
2022-11-29T12:12:56.457Z,38.03
2022-11-29T12:15:26.927Z,37.73
2022-11-29T12:18:06.123Z,38.20
2022-11-29T12:20:36.751Z,40.87
2022-11-29T12:23:13.016Z,34.90
2022-11-29T12:28:20.537Z,36.83
2022-11-29T12:31:20.006Z,36.90
2022-11-29T12:33:57.541Z,46.03
2022-11-29T12:36:52.814Z,41.90
2022-11-29T12:39:41.443Z,39.17
2022-11-29T12:42:15.994Z,46.37
2022-11-29T12:44:53.044Z,41.93
2022-11-29T12:47:51.477Z,42.30
2022-11-29T12:50:26.246Z,42.10
2022-11-29T12:53:14.105Z,47.40
2022-11-29T12:56:00.203Z,39.17
2022-11-29T12:58:33.418Z,41.73
2022-11-29T13:01:20.997Z,47.27
2022-11-29T13:04:08.253Z,43.53
2022-11-29T13:07:07.929Z,48.03
2022-11-29T13:09:48.782Z,44.20
2022-11-29T13:12:33.137Z,45.37
2022-11-29T13:15:03.948Z,45.33
2022-11-29T13:17:43.823Z,45.30
2022-11-29T13:20:32.911Z,50.23
2022-11-29T13:24:07.391Z,50.20
2022-11-29T13:26:29.582Z,47.90
2022-11-29T13:28:57.080Z,50.63
2022-11-29T13:31:25.415Z,45.93
2022-11-29T13:33:58.832Z,51.13
2022-11-29T13:36:38.573Z,46.93
2022-11-29T13:39:24.460Z,52.60
2022-11-29T13:42:10.222Z,46.17
2022-11-29T13:44:50.459Z,52.80
2022-11-29T13:47:18.634Z,53.70
2022-11-29T13:49:55.187Z,47.73
2022-11-29T13:52:37.453Z,55.55
2022-11-29T13:55:18.643Z,53.77
2022-11-29T13:58:16.803Z,51.20
2022-11-29T14:00:45.172Z,55.30
2022-11-29T14:03:18.576Z,50.57
2022-11-29T14:05:46.733Z,48.37
2022-11-29T14:08:37.893Z,56.27
2022-11-29T14:11:16.544Z,60.07
2022-11-29T14:13:51.679Z,54.47
2022-11-29T14:16:39.821Z,51.53
2022-11-29T14:19:10.292Z,62.67
2022-11-29T14:21:59.188Z,49.67
2022-11-29T14:24:32.748Z,53.90
2022-11-29T14:27:06.001Z,52.57
2022-11-29T14:29:54.921Z,52.67
2022-11-29T14:32:46.542Z,51.67
2022-11-29T14:35:21.991Z,50.13
2022-11-29T14:38:05.902Z,50.77
2022-11-29T14:40:42.605Z,51.23
2022-11-29T14:43:21.151Z,53.63
2022-11-29T14:46:06.647Z,55.17
2022-11-29T14:48:34.051Z,48.00
2022-11-29T14:51:09.090Z,52.73
2022-11-29T14:53:36.823Z,54.73
2022-11-29T14:56:29.714Z,54.20
2022-11-29T14:59:34.477Z,52.83
2022-11-29T15:02:04.940Z,51.95
2022-11-29T15:04:35.664Z,47.70
2022-11-29T15:07:03.295Z,55.00
2022-11-29T15:09:30.655Z,49.80
2022-11-29T15:12:08.202Z,53.67
2022-11-29T15:14:51.288Z,49.23
2022-11-29T15:17:56.378Z,58.33
2022-11-29T15:20:58.135Z,53.35
2022-11-29T15:23:25.502Z,54.27
2022-11-29T15:25:54.625Z,53.63
2022-11-29T15:28:23.731Z,51.37
2022-11-29T15:31:00.360Z,58.93
2022-11-29T15:33:28.420Z,65.17
2022-11-29T15:36:20.250Z,57.83
2022-11-29T15:38:52.437Z,55.30
2022-11-29T15:41:30.203Z,56.33
2022-11-29T15:43:59.702Z,55.10
2022-11-29T15:46:28.450Z,52.03
2022-11-29T15:48:56.227Z,54.13
2022-11-29T15:51:31.177Z,53.67
2022-11-29T15:54:13.258Z,53.57
2022-11-29T15:56:44.212Z,57.10
2022-11-29T15:59:29.676Z,52.20
2022-11-29T16:01:58.492Z,55.67
2022-11-29T16:04:27.193Z,51.23
2022-11-29T16:06:54.637Z,56.37
2022-11-29T16:09:43.056Z,50.73
2022-11-29T16:12:19.729Z,56.60
2022-11-29T16:14:50.801Z,58.20
2022-11-29T16:17:19.367Z,54.60
2022-11-29T16:19:47.069Z,54.77
2022-11-29T16:22:17.496Z,57.80
2022-11-29T16:25:14.839Z,56.17
2022-11-29T16:27:42.381Z,57.13
2022-11-29T16:30:40.152Z,53.63
2022-11-29T16:33:12.611Z,51.37
2022-11-29T16:35:40.249Z,57.50
2022-11-29T16:38:07.608Z,56.20
2022-11-29T16:40:35.469Z,51.30
2022-11-29T16:43:02.970Z,55.13
2022-11-29T16:45:41.510Z,48.10
2022-11-29T16:48:30.007Z,48.63
2022-11-29T16:51:09.593Z,54.37
2022-11-29T16:53:38.216Z,54.00
2022-11-29T16:56:05.705Z,52.60
2022-11-29T16:58:34.025Z,57.37
2022-11-29T17:01:28.272Z,52.37
2022-11-29T17:03:59.566Z,55.77
2022-11-29T17:06:27.281Z,58.70
2022-11-29T17:08:55.720Z,56.57
2022-11-29T17:11:23.140Z,52.97
2022-11-29T17:13:50.997Z,59.23
2022-11-29T17:16:19.933Z,60.00
2022-11-29T17:18:47.489Z,56.83
2022-11-29T17:21:19.049Z,56.57
2022-11-29T17:23:46.475Z,52.27
2022-11-29T17:26:15.487Z,50.33
2022-11-29T17:28:47.116Z,52.97
2022-11-29T17:31:16.086Z,60.43
2022-11-29T17:33:43.729Z,51.90
2022-11-29T17:36:12.561Z,55.40
2022-11-29T17:38:40.762Z,55.37
2022-11-29T17:41:09.645Z,55.53
2022-11-29T17:43:37.427Z,55.33
2022-11-29T17:46:12.486Z,57.60
2022-11-29T17:48:40.457Z,51.93
2022-11-29T17:51:22.803Z,53.23
2022-11-29T17:53:55.677Z,58.90
2022-11-29T17:56:24.738Z,53.53
2022-11-29T17:58:55.566Z,57.47
2022-11-29T18:01:24.699Z,54.87
2022-11-29T18:03:53.649Z,61.20
2022-11-29T18:06:25.493Z,54.40
2022-11-29T18:08:57.617Z,59.97
2022-11-29T18:11:29.927Z,59.03
2022-11-29T18:13:58.014Z,54.03
2022-11-29T18:16:30.117Z,61.87
2022-11-29T18:19:02.497Z,56.67
2022-11-29T18:21:29.856Z,55.07
2022-11-29T18:23:58.937Z,57.47
2022-11-29T18:26:27.115Z,54.33
2022-11-29T18:28:54.908Z,59.53
2022-11-29T18:31:28.173Z,52.90
2022-11-29T18:33:57.785Z,54.40
2022-11-29T18:36:27.253Z,55.93
2022-11-29T18:38:58.625Z,56.00
2022-11-29T18:41:26.465Z,56.00
2022-11-29T18:44:00.837Z,54.10
2022-11-29T18:46:32.938Z,56.10
2022-11-29T18:49:01.072Z,57.93
2022-11-29T18:51:29.496Z,57.70
2022-11-29T18:53:57.502Z,55.03
2022-11-29T18:56:26.307Z,53.97
2022-11-29T18:58:58.957Z,59.80
2022-11-29T19:01:27.893Z,62.97
2022-11-29T19:03:56.852Z,59.50
2022-11-29T19:06:25.939Z,49.47
2022-11-29T19:08:53.428Z,59.37
2022-11-29T19:11:22.071Z,60.93
2022-11-29T19:13:53.491Z,56.07
2022-11-29T19:16:22.103Z,55.43
2022-11-29T19:18:53.973Z,64.60
2022-11-29T19:21:22.515Z,59.60
2022-11-29T19:23:53.930Z,63.17
2022-11-29T19:26:21.669Z,53.13
2022-11-29T19:28:49.552Z,56.47
2022-11-29T19:31:17.951Z,50.20
2022-11-29T19:33:45.748Z,58.60
2022-11-29T19:36:17.598Z,54.63
2022-11-29T19:38:48.804Z,55.93
2022-11-29T19:41:29.811Z,54.83
2022-11-29T19:43:58.199Z,59.27
2022-11-29T19:46:27.518Z,63.00
2022-11-29T19:48:56.012Z,59.27
2022-11-29T19:51:24.065Z,58.40
2022-11-29T19:53:53.033Z,52.70
2022-11-29T19:56:20.574Z,51.70
2022-11-29T19:58:48.959Z,56.97
2022-11-29T20:01:20.001Z,54.67
2022-11-29T20:03:47.735Z,52.60
2022-11-29T20:06:15.168Z,52.23
2022-11-29T20:08:42.844Z,55.90
2022-11-29T20:11:13.231Z,52.87
2022-11-29T20:13:41.240Z,47.17
2022-11-29T20:16:13.258Z,51.33
2022-11-29T20:18:48.729Z,53.53
2022-11-29T20:21:22.554Z,55.43
2022-11-29T20:23:54.010Z,49.03
2022-11-29T20:26:21.364Z,52.93
2022-11-29T20:28:48.710Z,50.63
2022-11-29T20:31:18.088Z,52.37
2022-11-29T20:33:46.439Z,55.80
2022-11-29T20:36:22.965Z,55.33
2022-11-29T20:39:28.914Z,50.83
2022-11-29T20:42:27.083Z,51.25
2022-11-29T20:44:56.380Z,51.90
2022-11-29T20:47:28.083Z,47.23
2022-11-29T20:49:56.160Z,51.10
2022-11-29T20:52:59.697Z,49.47
2022-11-29T20:55:27.325Z,48.17
2022-11-29T20:57:55.634Z,53.70
2022-11-29T21:00:23.123Z,45.40
2022-11-29T21:02:51.365Z,48.53
2022-11-29T21:05:19.393Z,45.53
2022-11-29T21:07:46.876Z,41.03
2022-11-29T21:10:17.538Z,39.80
2022-11-29T21:12:45.718Z,46.93
2022-11-29T21:15:14.070Z,42.07
2022-11-29T21:17:41.980Z,39.03
2022-11-29T21:20:14.147Z,42.03
2022-11-29T21:22:58.531Z,38.90
2022-11-29T21:25:44.815Z,38.57
2022-11-29T21:28:13.722Z,45.37
2022-11-29T21:30:41.529Z,41.20
2022-11-29T21:33:09.299Z,40.60
2022-11-29T21:35:39.733Z,37.43
2022-11-29T21:38:07.180Z,35.70
2022-11-29T21:40:34.606Z,32.43
2022-11-29T21:43:02.193Z,34.23
2022-11-29T21:45:29.548Z,35.50
2022-11-29T21:47:59.749Z,39.00
2022-11-29T21:50:27.356Z,32.33
2022-11-29T21:52:54.710Z,35.57
2022-11-29T21:55:22.088Z,30.60
2022-11-29T21:57:49.690Z,32.13
2022-11-29T22:00:17.458Z,35.10
2022-11-29T22:02:45.128Z,33.27
2022-11-29T22:05:12.534Z,29.60
2022-11-29T22:07:39.938Z,32.13
2022-11-29T22:10:13.168Z,28.60
2022-11-29T22:12:51.208Z,28.93
2022-11-29T22:15:24.447Z,34.57
2022-11-29T22:17:53.385Z,31.67
2022-11-29T22:20:21.076Z,27.27
2022-11-29T22:22:50.063Z,33.10
2022-11-29T22:25:17.604Z,35.13
2022-11-29T22:27:45.185Z,34.37
2022-11-29T22:30:12.785Z,34.37
2022-11-29T22:32:40.135Z,29.27
2022-11-29T22:35:08.138Z,29.80
2022-11-29T22:37:35.482Z,30.70
2022-11-29T22:40:02.838Z,29.93
2022-11-29T22:42:30.559Z,29.97
2022-11-29T22:44:57.896Z,28.90
2022-11-29T22:47:25.451Z,26.70
2022-11-29T22:49:53.048Z,29.70
2022-11-29T22:52:20.436Z,29.37
2022-11-29T22:54:47.948Z,27.30
2022-11-29T22:57:15.877Z,32.43
2022-11-29T22:59:43.261Z,28.90
2022-11-29T23:02:10.617Z,28.30
2022-11-29T23:04:38.226Z,27.20
2022-11-29T23:07:05.595Z,31.60
2022-11-29T23:09:32.904Z,29.87
2022-11-29T23:12:00.561Z,27.37
2022-11-29T23:14:27.875Z,24.90
2022-11-29T23:16:55.350Z,25.50
2022-11-29T23:19:23.002Z,29.37
2022-11-29T23:21:50.524Z,30.17
2022-11-29T23:24:17.854Z,26.17
2022-11-29T23:26:46.257Z,24.27
2022-11-29T23:29:15.325Z,26.10
2022-11-29T23:31:42.729Z,31.60
2022-11-29T23:34:10.380Z,24.23
2022-11-29T23:36:37.907Z,25.47
2022-11-29T23:39:06.725Z,25.53
2022-11-29T23:41:35.648Z,30.27
2022-11-29T23:44:06.230Z,24.73
2022-11-29T23:46:34.603Z,27.87
2022-11-29T23:49:01.920Z,25.13
2022-11-29T23:51:29.291Z,27.80
2022-11-29T23:53:56.923Z,27.43
2022-11-29T23:56:24.262Z,28.83
2022-11-29T23:58:51.579Z,26.57
